createdAt,value
2019-03-29T00:00:47.344Z,5.10
2019-03-29T00:03:16.065Z,5.10
2019-03-29T00:05:44.884Z,5.10
2019-03-29T00:08:13.673Z,5.10
2019-03-29T00:10:42.586Z,5.10
2019-03-29T00:13:14.505Z,5.10
2019-03-29T00:15:41.778Z,5.10
2019-03-29T00:18:10.497Z,5.10
2019-03-29T00:20:39.358Z,5.10
2019-03-29T00:23:08.059Z,5.00
2019-03-29T00:25:36.799Z,5.00
2019-03-29T00:28:05.579Z,5.00
2019-03-29T00:30:34.309Z,5.00
2019-03-29T00:33:03.054Z,5.00
2019-03-29T00:35:31.850Z,5.00
2019-03-29T00:38:00.758Z,5.00
2019-03-29T00:40:29.721Z,4.90
2019-03-29T00:42:58.547Z,4.90
2019-03-29T00:45:27.292Z,4.90
2019-03-29T00:47:56.117Z,4.90
2019-03-29T00:50:25.143Z,4.90
2019-03-29T00:52:53.963Z,4.90
2019-03-29T00:55:22.757Z,4.90
2019-03-29T00:57:51.806Z,4.80
2019-03-29T01:00:20.574Z,4.90
2019-03-29T01:02:49.436Z,4.80
2019-03-29T01:05:18.225Z,4.80
2019-03-29T01:07:46.956Z,4.80
2019-03-29T01:10:15.695Z,4.80
2019-03-29T01:12:44.428Z,4.80
2019-03-29T01:15:13.146Z,4.80
2019-03-29T01:17:42.387Z,4.80
2019-03-29T01:20:11.195Z,4.80
2019-03-29T01:22:39.895Z,4.90
2019-03-29T01:25:08.675Z,4.90
2019-03-29T01:27:37.760Z,4.90
2019-03-29T01:30:07.159Z,4.90
2019-03-29T01:32:35.901Z,4.90
2019-03-29T01:35:06.519Z,5.00
2019-03-29T01:37:35.242Z,5.00
2019-03-29T01:40:05.000Z,5.10
2019-03-29T01:42:33.793Z,5.10
2019-03-29T01:45:02.673Z,5.20
2019-03-29T01:47:31.594Z,5.10
2019-03-29T01:50:00.473Z,5.20
2019-03-29T01:52:31.610Z,5.10
2019-03-29T01:54:59.782Z,5.20
2019-03-29T01:57:28.694Z,5.20
2019-03-29T01:59:57.413Z,5.30
2019-03-29T02:02:26.197Z,5.30
2019-03-29T02:04:55.084Z,5.30
2019-03-29T02:07:23.810Z,5.30
2019-03-29T02:09:52.515Z,5.30
2019-03-29T02:12:21.384Z,5.40
2019-03-29T02:14:50.107Z,5.40
2019-03-29T02:17:18.906Z,5.40
2019-03-29T02:19:47.787Z,5.40
2019-03-29T02:22:16.478Z,5.50
2019-03-29T02:24:45.226Z,5.50
2019-03-29T02:27:13.968Z,5.50
2019-03-29T02:29:42.702Z,5.50
2019-03-29T02:32:11.829Z,5.60
2019-03-29T02:34:43.586Z,5.50
2019-03-29T02:37:12.545Z,5.50
2019-03-29T02:39:41.274Z,5.60
2019-03-29T02:42:10.074Z,5.50
2019-03-29T02:44:38.850Z,5.50
2019-03-29T02:47:07.658Z,5.60
2019-03-29T02:49:36.445Z,5.60
2019-03-29T02:52:05.210Z,5.60
2019-03-29T02:54:33.915Z,5.70
2019-03-29T02:57:02.712Z,5.60
2019-03-29T02:59:31.498Z,5.50
2019-03-29T03:02:00.438Z,5.60
2019-03-29T03:04:29.205Z,5.70
2019-03-29T03:06:57.973Z,5.70
2019-03-29T03:09:26.730Z,5.70
2019-03-29T03:11:55.645Z,5.80
2019-03-29T03:14:24.496Z,5.70
2019-03-29T03:16:53.227Z,5.70
2019-03-29T03:19:22.051Z,5.70
2019-03-29T03:21:50.773Z,5.70
2019-03-29T03:24:19.508Z,5.70
2019-03-29T03:26:48.292Z,5.70
2019-03-29T03:29:17.006Z,5.70
2019-03-29T03:31:45.841Z,5.70
2019-03-29T03:34:16.153Z,5.70
2019-03-29T03:36:45.570Z,5.70
2019-03-29T03:39:30.605Z,5.70
2019-03-29T03:41:44.832Z,5.70
2019-03-29T03:44:13.581Z,5.80
2019-03-29T03:46:42.355Z,5.70
2019-03-29T03:49:11.301Z,5.70
2019-03-29T03:51:40.054Z,5.70
2019-03-29T03:54:08.796Z,5.70
2019-03-29T03:56:37.591Z,5.70
2019-03-29T03:59:06.458Z,5.70
2019-03-29T04:01:35.255Z,5.60
2019-03-29T04:04:04.348Z,5.70
2019-03-29T04:06:33.075Z,5.70
2019-03-29T04:09:01.882Z,5.70
2019-03-29T04:11:30.896Z,5.70
2019-03-29T04:13:59.645Z,5.70
2019-03-29T04:16:28.388Z,5.70
2019-03-29T04:18:57.427Z,5.70
2019-03-29T04:21:26.253Z,5.70
2019-03-29T04:23:55.028Z,5.70
2019-03-29T04:26:23.837Z,5.70
2019-03-29T04:29:04.054Z,5.70
2019-03-29T04:31:23.078Z,5.80
2019-03-29T04:33:51.841Z,5.70
2019-03-29T04:36:20.559Z,5.70
2019-03-29T04:38:49.308Z,5.70
2019-03-29T04:41:18.089Z,5.70
2019-03-29T04:43:46.789Z,5.70
2019-03-29T04:46:15.504Z,5.70
2019-03-29T04:48:44.271Z,5.70
2019-03-29T04:51:13.010Z,5.80
2019-03-29T04:53:41.712Z,5.80
2019-03-29T04:56:10.470Z,5.80
2019-03-29T04:58:39.212Z,5.90
2019-03-29T05:01:08.402Z,5.80
2019-03-29T05:03:37.293Z,5.90
2019-03-29T05:06:06.052Z,6.00
2019-03-29T05:08:34.743Z,5.90
2019-03-29T05:11:03.648Z,6.00
2019-03-29T05:13:32.394Z,6.00
2019-03-29T05:16:01.246Z,6.00
2019-03-29T05:18:30.028Z,6.10
2019-03-29T05:20:58.915Z,6.10
2019-03-29T05:23:27.598Z,6.10
2019-03-29T05:25:56.312Z,6.00
2019-03-29T05:28:25.110Z,6.20
2019-03-29T05:30:53.829Z,6.20
2019-03-29T05:33:22.668Z,6.30
2019-03-29T05:35:51.447Z,6.20
2019-03-29T05:38:20.249Z,6.30
2019-03-29T05:40:49.188Z,6.30
2019-03-29T05:43:18.150Z,6.30
2019-03-29T05:45:47.030Z,6.30
2019-03-29T05:48:15.889Z,6.40
2019-03-29T05:50:44.739Z,6.30
2019-03-29T05:53:14.708Z,6.40
2019-03-29T05:55:48.205Z,6.50
2019-03-29T05:58:15.591Z,6.50
2019-03-29T06:00:44.297Z,6.40
2019-03-29T06:03:13.182Z,6.60
2019-03-29T06:05:42.005Z,6.70
2019-03-29T06:08:11.016Z,6.60
2019-03-29T06:10:49.009Z,6.60
2019-03-29T06:13:10.427Z,6.60
2019-03-29T06:15:39.214Z,6.70
2019-03-29T06:18:08.327Z,6.70
2019-03-29T06:20:37.122Z,6.70
2019-03-29T06:23:06.090Z,6.70
2019-03-29T06:25:35.459Z,6.80
2019-03-29T06:28:04.973Z,6.80
2019-03-29T06:30:33.867Z,6.80
2019-03-29T06:33:03.684Z,6.90
2019-03-29T06:35:33.651Z,6.90
2019-03-29T06:38:04.130Z,6.90
2019-03-29T06:40:33.086Z,7.00
2019-03-29T06:43:02.021Z,7.20
2019-03-29T06:45:31.039Z,7.30
2019-03-29T06:48:00.094Z,7.20
2019-03-29T06:50:30.522Z,7.20
2019-03-29T06:52:59.363Z,7.30
2019-03-29T06:55:28.436Z,7.40
2019-03-29T06:57:57.373Z,7.30
2019-03-29T07:00:26.353Z,7.50
2019-03-29T07:02:55.271Z,7.40
2019-03-29T07:05:24.084Z,7.50
2019-03-29T07:07:52.904Z,7.60
2019-03-29T07:10:21.601Z,7.80
2019-03-29T07:12:50.468Z,8.00
2019-03-29T07:15:19.181Z,8.00
2019-03-29T07:17:47.892Z,8.10
2019-03-29T07:20:16.786Z,7.90
2019-03-29T07:22:45.607Z,8.00
2019-03-29T07:25:14.433Z,8.10
2019-03-29T07:27:46.703Z,8.30
2019-03-29T07:30:13.775Z,8.40
2019-03-29T07:32:42.710Z,8.60
2019-03-29T07:35:11.665Z,8.60
2019-03-29T07:37:40.416Z,8.60
2019-03-29T07:40:09.297Z,8.70
2019-03-29T07:42:38.446Z,8.80
2019-03-29T07:45:09.973Z,8.80
2019-03-29T07:47:37.696Z,9.10
2019-03-29T07:50:08.048Z,9.20
2019-03-29T07:52:36.807Z,9.00
2019-03-29T07:55:07.397Z,9.10
2019-03-29T07:57:36.222Z,9.00
2019-03-29T08:00:07.250Z,9.20
2019-03-29T08:02:36.143Z,9.30
2019-03-29T08:05:06.852Z,9.40
2019-03-29T08:07:37.366Z,9.50
2019-03-29T08:10:07.102Z,9.70
2019-03-29T08:12:35.936Z,9.70
2019-03-29T08:15:19.221Z,9.60
2019-03-29T08:17:47.925Z,9.70
2019-03-29T08:20:38.220Z,9.70
2019-03-29T08:22:48.833Z,9.80
2019-03-29T08:25:19.128Z,9.80
2019-03-29T08:27:48.213Z,10.00
2019-03-29T08:30:18.156Z,10.30
2019-03-29T08:32:47.664Z,10.90
2019-03-29T08:35:16.415Z,11.20
2019-03-29T08:37:45.245Z,11.00
2019-03-29T08:40:14.090Z,11.40
2019-03-29T08:42:43.188Z,12.20
2019-03-29T08:45:11.981Z,12.30
2019-03-29T08:47:40.820Z,11.90
2019-03-29T08:50:11.443Z,11.40
2019-03-29T08:52:40.391Z,11.10
2019-03-29T08:55:09.680Z,11.60
2019-03-29T08:57:38.491Z,12.00
2019-03-29T09:00:07.700Z,11.90
2019-03-29T09:02:37.283Z,12.70
2019-03-29T09:05:06.989Z,13.20
2019-03-29T09:07:44.991Z,12.90
2019-03-29T09:10:12.748Z,12.90
2019-03-29T09:12:42.180Z,13.10
2019-03-29T09:15:11.233Z,13.50
2019-03-29T09:17:40.624Z,14.20
2019-03-29T09:20:10.680Z,13.80
2019-03-29T09:22:39.733Z,13.80
2019-03-29T09:25:08.657Z,14.20
2019-03-29T09:27:37.596Z,14.30
2019-03-29T09:30:06.769Z,13.90
2019-03-29T09:32:35.918Z,13.90
2019-03-29T09:35:07.641Z,14.00
2019-03-29T09:37:39.831Z,13.90
2019-03-29T09:40:08.828Z,14.30
2019-03-29T09:42:37.681Z,15.00
2019-03-29T09:45:12.152Z,15.80
2019-03-29T09:47:41.147Z,15.40
2019-03-29T09:50:10.810Z,15.80
2019-03-29T09:52:39.993Z,16.20
2019-03-29T09:55:09.095Z,15.30
2019-03-29T09:57:38.778Z,15.90
2019-03-29T10:00:20.665Z,16.30
2019-03-29T10:02:39.714Z,17.00
2019-03-29T10:05:08.953Z,17.60
2019-03-29T10:07:39.345Z,17.00
2019-03-29T10:10:08.477Z,16.70
2019-03-29T10:12:43.747Z,17.70
2019-03-29T10:15:08.294Z,18.80
2019-03-29T10:17:40.307Z,18.60
2019-03-29T10:20:09.444Z,17.50
2019-03-29T10:22:38.415Z,16.00
2019-03-29T10:25:18.467Z,16.40
2019-03-29T10:27:38.473Z,16.40
2019-03-29T10:30:11.562Z,17.00
2019-03-29T10:32:40.527Z,18.50
2019-03-29T10:35:10.623Z,18.20
2019-03-29T10:37:39.727Z,18.60
2019-03-29T10:40:11.441Z,18.70
2019-03-29T10:42:40.754Z,18.20
2019-03-29T10:45:09.917Z,17.90
2019-03-29T10:47:43.504Z,17.70
2019-03-29T10:50:09.438Z,17.90
2019-03-29T10:52:41.564Z,17.90
2019-03-29T10:55:14.800Z,17.40
2019-03-29T10:57:43.723Z,16.50
2019-03-29T11:00:21.528Z,16.90
2019-03-29T11:02:50.833Z,17.00
2019-03-29T11:05:19.855Z,17.00
2019-03-29T11:07:48.744Z,16.90
2019-03-29T11:10:32.243Z,17.30
2019-03-29T11:13:12.773Z,17.20
2019-03-29T11:15:31.616Z,17.40
2019-03-29T11:18:00.411Z,17.30
2019-03-29T11:20:29.267Z,17.80
2019-03-29T11:22:58.326Z,17.30
2019-03-29T11:25:27.639Z,17.30
2019-03-29T11:27:56.720Z,16.40
2019-03-29T11:30:25.828Z,16.40
2019-03-29T11:32:54.765Z,16.50
2019-03-29T11:35:23.866Z,16.20
2019-03-29T11:37:53.038Z,16.40
2019-03-29T11:40:21.857Z,16.60
2019-03-29T11:42:50.765Z,17.00
2019-03-29T11:45:19.866Z,17.00
2019-03-29T11:47:48.937Z,16.60
2019-03-29T11:50:17.999Z,16.60
2019-03-29T11:52:46.973Z,17.30
2019-03-29T11:55:15.929Z,16.60
2019-03-29T11:57:45.256Z,16.50
2019-03-29T12:00:14.440Z,16.60
2019-03-29T12:02:43.446Z,17.70
2019-03-29T12:05:12.382Z,17.70
2019-03-29T12:07:41.539Z,15.90
2019-03-29T12:10:10.511Z,15.40
2019-03-29T12:12:40.216Z,16.20
2019-03-29T12:15:09.151Z,15.10
2019-03-29T12:17:37.970Z,14.90
2019-03-29T12:20:07.409Z,15.10
2019-03-29T12:22:36.494Z,15.40
2019-03-29T12:25:07.365Z,15.70
2019-03-29T12:27:36.391Z,15.90
2019-03-29T12:30:09.873Z,16.80
2019-03-29T12:32:38.707Z,15.80
2019-03-29T12:35:10.059Z,15.20
2019-03-29T12:37:38.693Z,15.60
2019-03-29T12:40:08.105Z,16.50
2019-03-29T12:42:37.078Z,16.70
2019-03-29T12:45:06.884Z,18.00
2019-03-29T12:47:35.791Z,17.90
2019-03-29T12:50:06.571Z,18.20
2019-03-29T12:52:35.476Z,17.70
2019-03-29T12:55:06.187Z,17.20
2019-03-29T12:57:38.451Z,18.10
2019-03-29T13:00:09.095Z,18.40
2019-03-29T13:02:38.489Z,18.60
2019-03-29T13:05:08.151Z,18.20
2019-03-29T13:07:37.431Z,19.20
2019-03-29T13:10:08.743Z,18.20
2019-03-29T13:12:37.625Z,18.00
2019-03-29T13:15:07.906Z,18.00
2019-03-29T13:17:36.700Z,18.90
2019-03-29T13:20:06.906Z,18.20
2019-03-29T13:22:37.412Z,17.70
2019-03-29T13:25:07.622Z,18.00
2019-03-29T13:27:37.009Z,17.30
2019-03-29T13:30:09.135Z,16.80
2019-03-29T13:32:38.213Z,16.50
2019-03-29T13:35:07.600Z,16.10
2019-03-29T13:37:36.580Z,15.60
2019-03-29T13:40:08.961Z,15.60
2019-03-29T13:42:38.108Z,15.70
2019-03-29T13:45:08.391Z,15.80
2019-03-29T13:47:37.894Z,14.90
2019-03-29T13:50:08.272Z,15.20
2019-03-29T13:52:37.148Z,15.70
2019-03-29T13:55:06.586Z,15.90
2019-03-29T13:57:37.105Z,15.70
2019-03-29T14:00:10.682Z,16.00
2019-03-29T14:02:39.496Z,16.30
2019-03-29T14:05:10.899Z,16.20
2019-03-29T14:07:40.196Z,16.50
2019-03-29T14:10:12.091Z,16.30
2019-03-29T14:12:41.130Z,16.30
2019-03-29T14:15:11.529Z,15.80
2019-03-29T14:17:40.780Z,15.70
2019-03-29T14:20:09.882Z,15.50
2019-03-29T14:22:38.939Z,14.60
2019-03-29T14:25:08.046Z,14.40
2019-03-29T14:27:37.320Z,14.10
2019-03-29T14:30:07.417Z,13.80
2019-03-29T14:32:36.631Z,14.20
2019-03-29T14:35:08.905Z,14.20
2019-03-29T14:37:38.294Z,14.20
2019-03-29T14:40:09.614Z,13.90
2019-03-29T14:42:43.447Z,13.90
2019-03-29T14:45:18.061Z,13.70
2019-03-29T14:47:54.128Z,13.60
2019-03-29T14:50:31.306Z,13.70
2019-03-29T14:53:05.606Z,13.70
2019-03-29T14:55:38.353Z,13.90
2019-03-29T14:58:11.963Z,14.30
2019-03-29T15:00:48.775Z,14.60
2019-03-29T15:03:22.689Z,14.60
2019-03-29T15:05:57.397Z,14.40
2019-03-29T15:08:32.414Z,14.40
2019-03-29T15:11:05.911Z,13.80
2019-03-29T15:13:40.085Z,13.80
2019-03-29T15:16:15.001Z,13.80
2019-03-29T15:18:48.793Z,13.70
2019-03-29T15:21:23.214Z,13.60
2019-03-29T15:23:58.797Z,13.30
2019-03-29T15:26:34.560Z,13.30
2019-03-29T15:29:07.654Z,13.30
2019-03-29T15:31:39.483Z,13.30
2019-03-29T15:34:11.118Z,13.20
2019-03-29T15:36:43.442Z,13.00
2019-03-29T15:39:17.530Z,12.90
2019-03-29T15:41:48.490Z,12.80
2019-03-29T15:44:18.353Z,12.50
2019-03-29T15:46:48.062Z,12.50
2019-03-29T15:49:18.155Z,12.50
2019-03-29T15:51:47.069Z,12.50
2019-03-29T15:54:16.897Z,12.50
2019-03-29T15:56:46.384Z,12.30
2019-03-29T15:59:15.234Z,12.20
2019-03-29T16:01:49.610Z,12.30
2019-03-29T16:04:23.838Z,12.20
2019-03-29T16:06:56.372Z,12.10
2019-03-29T16:09:26.242Z,12.10
2019-03-29T16:11:56.748Z,12.00
2019-03-29T16:14:26.599Z,11.90
2019-03-29T16:16:58.499Z,11.80
2019-03-29T16:19:41.498Z,11.80
2019-03-29T16:22:17.831Z,11.80
2019-03-29T16:24:53.766Z,11.70
2019-03-29T16:27:39.830Z,11.60
2019-03-29T16:30:16.115Z,11.60
2019-03-29T16:32:58.392Z,11.50
2019-03-29T16:35:35.351Z,11.50
2019-03-29T16:38:12.381Z,11.40
2019-03-29T16:40:47.665Z,11.30
2019-03-29T16:43:23.612Z,11.30
2019-03-29T16:45:59.943Z,11.40
2019-03-29T16:48:47.366Z,11.30
2019-03-29T16:51:23.846Z,11.20
2019-03-29T16:54:11.947Z,11.20
2019-03-29T16:56:48.808Z,11.10
2019-03-29T16:59:29.176Z,11.10
2019-03-29T17:02:09.583Z,11.10
2019-03-29T17:04:55.687Z,11.10
2019-03-29T17:07:31.673Z,11.00
2019-03-29T17:10:11.108Z,11.00
2019-03-29T17:12:52.332Z,11.00
2019-03-29T17:15:36.696Z,10.90
2019-03-29T17:18:29.126Z,10.80
2019-03-29T17:23:56.115Z,10.80
2019-03-29T17:26:26.573Z,10.70
2019-03-29T17:28:58.830Z,10.60
2019-03-29T17:31:30.772Z,10.50
2019-03-29T17:34:03.302Z,10.60
2019-03-29T17:36:38.183Z,10.50
2019-03-29T17:39:10.995Z,10.40
2019-03-29T17:41:44.054Z,10.50
2019-03-29T17:44:18.155Z,10.40
2019-03-29T17:46:49.913Z,10.30
2019-03-29T17:49:21.650Z,10.30
2019-03-29T17:51:56.858Z,10.30
2019-03-29T17:54:44.024Z,10.20
2019-03-29T17:57:20.515Z,10.10
2019-03-29T18:00:03.336Z,10.20
2019-03-29T18:02:41.678Z,10.20
2019-03-29T18:05:14.713Z,10.10
2019-03-29T18:07:48.636Z,10.10
2019-03-29T18:10:24.488Z,10.10
2019-03-29T18:12:59.866Z,10.10
2019-03-29T18:15:34.584Z,10.10
2019-03-29T18:18:13.163Z,10.10
2019-03-29T18:20:59.058Z,10.00
2019-03-29T18:23:35.286Z,10.00
2019-03-29T18:26:06.294Z,10.00
2019-03-29T18:28:38.819Z,10.00
2019-03-29T18:31:10.200Z,10.00
2019-03-29T18:33:38.490Z,9.90
2019-03-29T18:36:12.770Z,9.80
2019-03-29T18:38:45.643Z,9.90
2019-03-29T18:41:19.497Z,9.80
2019-03-29T18:43:49.805Z,9.80
2019-03-29T18:46:21.615Z,9.70
2019-03-29T18:48:54.655Z,9.70
2019-03-29T18:51:26.504Z,9.60
2019-03-29T18:53:58.526Z,9.50
2019-03-29T18:56:29.857Z,9.40
2019-03-29T18:59:01.883Z,9.40
2019-03-29T19:01:33.776Z,9.40
2019-03-29T19:04:07.076Z,9.30
2019-03-29T19:06:39.699Z,9.20
2019-03-29T19:09:11.189Z,9.20
2019-03-29T19:11:44.987Z,9.20
2019-03-29T19:14:15.917Z,9.10
2019-03-29T19:16:58.432Z,9.00
2019-03-29T19:19:19.779Z,9.00
2019-03-29T19:21:53.600Z,9.00
2019-03-29T19:24:29.148Z,8.90
2019-03-29T19:27:03.518Z,8.90
2019-03-29T19:29:37.500Z,8.90
2019-03-29T19:32:09.107Z,8.80
2019-03-29T19:35:06.011Z,8.80
2019-03-29T19:37:43.144Z,8.80
2019-03-29T19:40:14.491Z,8.80
2019-03-29T19:42:45.730Z,8.80
2019-03-29T19:45:16.803Z,8.70
2019-03-29T19:47:48.474Z,8.70
2019-03-29T19:50:23.639Z,8.70
2019-03-29T19:52:55.775Z,8.70
2019-03-29T19:55:34.462Z,8.70
2019-03-29T19:58:05.740Z,8.70
2019-03-29T20:00:40.274Z,8.70
2019-03-29T20:03:11.876Z,8.60
2019-03-29T20:05:44.303Z,8.60
2019-03-29T20:08:15.804Z,8.60
2019-03-29T20:10:45.663Z,8.60
2019-03-29T20:13:16.399Z,8.60
2019-03-29T20:15:48.649Z,8.50
2019-03-29T20:18:21.599Z,8.50
2019-03-29T20:20:53.896Z,8.50
2019-03-29T20:23:25.951Z,8.50
2019-03-29T20:25:56.468Z,8.40
2019-03-29T20:28:25.250Z,8.40
2019-03-29T20:30:58.240Z,8.40
2019-03-29T20:33:30.099Z,8.40
2019-03-29T20:36:01.890Z,8.30
2019-03-29T20:38:31.820Z,8.30
2019-03-29T20:41:03.302Z,8.30
2019-03-29T20:43:34.945Z,8.30
2019-03-29T20:46:06.421Z,8.30
2019-03-29T20:48:36.698Z,8.30
2019-03-29T20:51:07.803Z,8.30
2019-03-29T20:53:43.532Z,8.30
2019-03-29T20:56:15.316Z,8.20
2019-03-29T20:58:47.409Z,8.20
2019-03-29T21:01:18.647Z,8.20
2019-03-29T21:03:51.307Z,8.20
2019-03-29T21:06:23.898Z,8.20
2019-03-29T21:08:55.777Z,8.20
2019-03-29T21:11:27.980Z,8.10
2019-03-29T21:13:59.387Z,8.10
2019-03-29T21:16:32.385Z,8.10
2019-03-29T21:19:03.933Z,8.00
2019-03-29T21:21:35.471Z,8.10
2019-03-29T21:24:05.591Z,8.10
2019-03-29T21:26:34.890Z,8.00
2019-03-29T21:29:08.866Z,8.00
2019-03-29T21:31:37.970Z,8.00
2019-03-29T21:34:09.657Z,8.00
2019-03-29T21:36:41.250Z,8.00
2019-03-29T21:39:17.310Z,7.90
2019-03-29T21:41:50.071Z,7.90
2019-03-29T21:44:22.823Z,7.90
2019-03-29T21:46:55.817Z,7.80
2019-03-29T21:49:29.204Z,7.80
2019-03-29T21:52:00.667Z,7.80
2019-03-29T21:54:32.172Z,7.70
2019-03-29T21:57:04.898Z,7.70
2019-03-29T21:59:37.223Z,7.70
2019-03-29T22:02:09.996Z,7.70
2019-03-29T22:04:40.342Z,7.70
2019-03-29T22:07:12.848Z,7.70
2019-03-29T22:09:44.386Z,7.70
2019-03-29T22:12:15.088Z,7.60
2019-03-29T22:14:45.569Z,7.60
2019-03-29T22:17:14.555Z,7.60
2019-03-29T22:19:47.178Z,7.60
2019-03-29T22:22:18.830Z,7.60
2019-03-29T22:24:53.601Z,7.50
2019-03-29T22:27:26.480Z,7.50
2019-03-29T22:30:01.938Z,7.50
2019-03-29T22:32:35.300Z,7.50
2019-03-29T22:35:09.123Z,7.50
2019-03-29T22:37:43.178Z,7.50
2019-03-29T22:40:12.179Z,7.60
2019-03-29T22:42:43.853Z,7.50
2019-03-29T22:45:16.473Z,7.60
2019-03-29T22:47:49.031Z,7.60
2019-03-29T22:50:20.498Z,7.70
2019-03-29T22:52:56.349Z,7.70
2019-03-29T22:55:28.874Z,7.70
2019-03-29T22:58:01.712Z,7.70
2019-03-29T23:00:40.545Z,7.70
2019-03-29T23:03:09.393Z,7.60
2019-03-29T23:05:38.215Z,7.60
2019-03-29T23:08:06.983Z,7.60
2019-03-29T23:10:36.494Z,7.60
2019-03-29T23:13:05.208Z,7.60
2019-03-29T23:15:34.360Z,7.50
2019-03-29T23:18:03.108Z,7.50
2019-03-29T23:20:32.009Z,7.50
2019-03-29T23:23:01.039Z,7.50
2019-03-29T23:25:29.729Z,7.60
2019-03-29T23:27:58.709Z,7.60
2019-03-29T23:30:27.699Z,7.50
2019-03-29T23:32:56.480Z,7.50
2019-03-29T23:35:25.236Z,7.60
2019-03-29T23:37:54.041Z,7.50
2019-03-29T23:40:22.854Z,7.50
2019-03-29T23:42:51.635Z,7.40
2019-03-29T23:45:20.531Z,7.40
2019-03-29T23:47:49.322Z,7.40
2019-03-29T23:50:18.203Z,7.40
2019-03-29T23:52:47.401Z,7.30
2019-03-29T23:55:16.314Z,7.30
2019-03-29T23:57:45.253Z,7.40
